Time;durP1;ratioP1;P1;durP2;ratioP2;P2;SDS_P1;SDS_P2;PMS_P1;PMS_P2;Temp;Humidity;BMP_temperature;BMP_pressure;BME280_temperature;BME280_humidity;BME280_pressure;Samples;Min_cycle;Max_cycle;Signal;HPM_P1;HPM_P2
2019/10/22 00:01:06;;;;;;;1.69;1.58;;;;;;;20.26;60.09;101233.06;;;;-62
2019/10/22 00:04:06;;;;;;;1.60;1.50;;;;;;;20.25;60.15;101227.98;;;;-63
2019/10/22 00:07:06;;;;;;;3.21;1.49;;;;;;;20.25;60.13;101230.33;;;;-61
2019/10/22 00:10:06;;;;;;;2.15;1.72;;;;;;;20.25;60.07;101235.53;;;;-62
2019/10/22 00:13:06;;;;;;;1.63;1.53;;;;;;;20.25;60.10;101244.48;;;;-62
2019/10/22 00:16:06;;;;;;;1.60;1.50;;;;;;;20.24;60.10;101245.98;;;;-62
2019/10/22 00:19:06;;;;;;;1.89;1.55;;;;;;;20.25;60.12;101235.70;;;;-62
2019/10/22 00:22:06;;;;;;;1.60;1.50;;;;;;;20.24;60.11;101241.58;;;;-63
2019/10/22 00:25:06;;;;;;;1.99;1.53;;;;;;;20.23;60.11;101236.13;;;;-62
2019/10/22 00:28:06;;;;;;;1.60;1.50;;;;;;;20.23;60.12;101238.65;;;;-61
2019/10/22 00:31:06;;;;;;;1.59;1.49;;;;;;;20.22;60.13;101238.94;;;;-61
2019/10/22 00:34:06;;;;;;;1.70;1.60;;;;;;;20.23;60.16;101253.92;;;;-62
2019/10/22 00:37:06;;;;;;;1.70;1.60;;;;;;;20.23;60.06;101258.16;;;;-62
2019/10/22 00:40:06;;;;;;;1.60;1.50;;;;;;;20.22;60.13;101260.02;;;;-62
2019/10/22 00:43:06;;;;;;;2.24;1.66;;;;;;;20.22;60.12;101267.17;;;;-62
2019/10/22 00:46:06;;;;;;;1.61;1.49;;;;;;;20.22;60.10;101271.43;;;;-62
2019/10/22 00:49:06;;;;;;;1.53;1.43;;;;;;;20.22;60.13;101274.05;;;;-61
2019/10/22 00:52:06;;;;;;;1.93;1.50;;;;;;;20.21;60.12;101271.64;;;;-61
2019/10/22 00:55:06;;;;;;;1.66;1.56;;;;;;;20.21;60.14;101267.95;;;;-61
2019/10/22 00:58:06;;;;;;;1.70;1.60;;;;;;;20.20;60.13;101264.82;;;;-62
2019/10/22 01:01:06;;;;;;;1.60;1.50;;;;;;;20.20;60.16;101264.89;;;;-61
2019/10/22 01:04:06;;;;;;;1.54;1.44;;;;;;;20.19;60.09;101265.78;;;;-62
2019/10/22 01:07:06;;;;;;;1.69;1.53;;;;;;;20.19;60.12;101255.71;;;;-63
2019/10/22 01:10:06;;;;;;;1.61;1.51;;;;;;;20.19;60.10;101247.83;;;;-62
2019/10/22 01:13:06;;;;;;;1.60;1.50;;;;;;;20.19;60.17;101244.88;;;;-62
2019/10/22 01:16:06;;;;;;;1.60;1.50;;;;;;;20.19;60.13;101241.08;;;;-63
2019/10/22 01:19:06;;;;;;;1.80;1.70;;;;;;;20.19;60.11;101239.83;;;;-62
2019/10/22 01:22:06;;;;;;;1.60;1.50;;;;;;;20.19;60.11;101228.09;;;;-62
2019/10/22 01:25:06;;;;;;;1.50;1.40;;;;;;;20.19;60.12;101216.34;;;;-62
2019/10/22 01:28:06;;;;;;;1.99;1.49;;;;;;;20.18;60.08;101215.23;;;;-62
2019/10/22 01:31:06;;;;;;;1.64;1.54;;;;;;;20.19;60.10;101217.52;;;;-61
2019/10/22 01:34:06;;;;;;;1.72;1.53;;;;;;;20.17;60.13;101202.16;;;;-61
2019/10/22 01:37:06;;;;;;;1.60;1.50;;;;;;;20.18;60.11;101194.99;;;;-62
2019/10/22 01:40:06;;;;;;;1.56;1.46;;;;;;;20.17;60.07;101194.72;;;;-62
2019/10/22 01:43:06;;;;;;;1.63;1.53;;;;;;;20.17;60.14;101197.80;;;;-62
2019/10/22 01:46:06;;;;;;;1.71;1.51;;;;;;;20.17;60.12;101201.77;;;;-61
2019/10/22 01:49:06;;;;;;;1.62;1.52;;;;;;;20.16;60.14;101206.98;;;;-62
2019/10/22 01:52:20;;;;;;;1.50;1.40;;;;;;;20.17;60.14;101210.70;;;;-62
2019/10/22 01:55:06;;;;;;;1.74;1.49;;;;;;;20.16;60.09;101202.95;;;;-62
2019/10/22 01:58:06;;;;;;;1.65;1.55;;;;;;;20.15;60.14;101202.89;;;;-63
2019/10/22 02:01:06;;;;;;;2.49;1.50;;;;;;;20.16;60.09;101215.92;;;;-62
2019/10/22 02:04:06;;;;;;;1.51;1.41;;;;;;;20.16;60.13;101213.67;;;;-63
2019/10/22 02:07:06;;;;;;;1.60;1.50;;;;;;;20.14;60.16;101221.23;;;;-62
2019/10/22 02:10:06;;;;;;;1.52;1.42;;;;;;;20.15;60.10;101237.09;;;;-61
2019/10/22 02:13:06;;;;;;;1.57;1.41;;;;;;;20.14;60.15;101243.93;;;;-61
2019/10/22 02:16:06;;;;;;;1.67;1.57;;;;;;;20.15;60.13;101249.51;;;;-62
2019/10/22 02:19:06;;;;;;;1.50;1.40;;;;;;;20.14;60.13;101254.44;;;;-62
2019/10/22 02:22:06;;;;;;;1.89;1.47;;;;;;;20.14;60.13;101240.41;;;;-62
2019/10/22 02:25:06;;;;;;;1.79;1.62;;;;;;;20.14;60.14;101236.70;;;;-61
2019/10/22 02:28:06;;;;;;;2.29;1.47;;;;;;;20.14;60.16;101243.53;;;;-62
2019/10/22 02:31:06;;;;;;;1.58;1.48;;;;;;;20.14;60.11;101241.73;;;;-63
2019/10/22 02:34:06;;;;;;;1.65;1.55;;;;;;;20.13;60.12;101230.96;;;;-61
2019/10/22 02:37:06;;;;;;;1.65;1.53;;;;;;;20.14;60.08;101232.02;;;;-61
2019/10/22 02:40:06;;;;;;;1.62;1.52;;;;;;;20.13;60.12;101227.71;;;;-63
2019/10/22 02:43:06;;;;;;;1.78;1.53;;;;;;;20.12;60.11;101220.84;;;;-63
2019/10/22 02:46:06;;;;;;;1.60;1.44;;;;;;;20.12;60.13;101239.73;;;;-62
2019/10/22 02:49:06;;;;;;;2.16;1.50;;;;;;;20.12;60.15;101259.69;;;;-62
2019/10/22 02:52:06;;;;;;;1.54;1.44;;;;;;;20.12;60.11;101277.80;;;;-62
2019/10/22 02:55:06;;;;;;;1.78;1.40;;;;;;;20.12;60.13;101288.54;;;;-61
2019/10/22 02:58:06;;;;;;;1.55;1.43;;;;;;;20.12;60.14;101287.26;;;;-62
2019/10/22 03:01:06;;;;;;;1.55;1.45;;;;;;;20.12;60.11;101290.70;;;;-62
2019/10/22 03:04:06;;;;;;;1.60;1.50;;;;;;;20.12;60.11;101298.48;;;;-62
2019/10/22 03:07:06;;;;;;;1.42;1.32;;;;;;;20.12;60.10;101309.39;;;;-61
2019/10/22 03:10:06;;;;;;;1.57;1.47;;;;;;;20.11;60.11;101293.41;;;;-62
2019/10/22 03:13:06;;;;;;;1.50;1.40;;;;;;;20.11;60.11;101284.35;;;;-62
2019/10/22 03:16:06;;;;;;;1.61;1.51;;;;;;;20.11;60.11;101286.30;;;;-62
2019/10/22 03:19:06;;;;;;;1.51;1.41;;;;;;;20.11;60.12;101284.95;;;;-62
2019/10/22 03:22:06;;;;;;;1.47;1.37;;;;;;;20.11;60.09;101264.90;;;;-62
2019/10/22 03:25:06;;;;;;;1.60;1.50;;;;;;;20.11;60.09;101267.17;;;;-63
2019/10/22 03:28:06;;;;;;;1.65;1.55;;;;;;;20.11;60.09;101268.08;;;;-61
2019/10/22 03:31:06;;;;;;;1.91;1.60;;;;;;;20.11;60.11;101266.56;;;;-61
2019/10/22 03:34:06;;;;;;;1.50;1.40;;;;;;;20.10;60.09;101261.31;;;;-63
2019/10/22 03:37:06;;;;;;;1.59;1.49;;;;;;;20.10;60.06;101260.58;;;;-62
2019/10/22 03:40:06;;;;;;;1.74;1.40;;;;;;;20.09;60.13;101264.63;;;;-62
2019/10/22 03:43:06;;;;;;;1.71;1.38;;;;;;;20.09;60.09;101249.80;;;;-62
2019/10/22 03:46:06;;;;;;;1.58;1.48;;;;;;;20.09;60.14;101232.69;;;;-62
2019/10/22 03:49:06;;;;;;;1.50;1.40;;;;;;;20.09;60.04;101231.91;;;;-62
2019/10/22 03:52:06;;;;;;;1.57;1.47;;;;;;;20.08;60.12;101234.05;;;;-62
2019/10/22 03:55:06;;;;;;;1.59;1.49;;;;;;;20.08;60.09;101236.48;;;;-62
2019/10/22 03:58:06;;;;;;;1.63;1.53;;;;;;;20.08;60.11;101248.07;;;;-62
2019/10/22 04:01:06;;;;;;;1.50;1.40;;;;;;;20.08;60.09;101259.47;;;;-63
2019/10/22 04:04:06;;;;;;;1.63;1.53;;;;;;;20.08;60.05;101263.82;;;;-61
2019/10/22 04:07:06;;;;;;;1.59;1.46;;;;;;;20.08;60.09;101262.72;;;;-62
2019/10/22 04:10:06;;;;;;;1.60;1.50;;;;;;;20.08;60.07;101262.20;;;;-62
2019/10/22 04:13:06;;;;;;;1.67;1.57;;;;;;;20.08;60.13;101254.49;;;;-62
2019/10/22 04:16:06;;;;;;;1.60;1.50;;;;;;;20.07;60.04;101242.91;;;;-62
2019/10/22 04:19:06;;;;;;;1.49;1.39;;;;;;;20.07;60.07;101244.31;;;;-61
2019/10/22 04:22:06;;;;;;;1.51;1.41;;;;;;;20.06;60.04;101241.92;;;;-62
2019/10/22 04:25:06;;;;;;;1.60;1.50;;;;;;;20.07;60.07;101246.55;;;;-63
2019/10/22 04:28:06;;;;;;;1.60;1.50;;;;;;;20.07;60.09;101249.91;;;;-62
2019/10/22 04:31:06;;;;;;;1.60;1.50;;;;;;;20.06;60.09;101244.66;;;;-62
2019/10/22 04:34:06;;;;;;;1.63;1.53;;;;;;;20.06;60.11;101240.58;;;;-62
2019/10/22 04:37:06;;;;;;;1.62;1.52;;;;;;;20.06;60.08;101234.88;;;;-62
2019/10/22 04:40:06;;;;;;;1.53;1.43;;;;;;;20.07;60.10;101233.58;;;;-63
2019/10/22 04:43:06;;;;;;;1.58;1.46;;;;;;;20.07;60.05;101231.01;;;;-61
2019/10/22 04:46:06;;;;;;;1.60;1.50;;;;;;;20.08;60.01;101231.03;;;;-61
2019/10/22 04:49:06;;;;;;;1.60;1.50;;;;;;;20.09;59.96;101234.42;;;;-61
2019/10/22 04:52:06;;;;;;;1.50;1.40;;;;;;;20.11;59.89;101233.30;;;;-63
2019/10/22 04:55:06;;;;;;;1.50;1.40;;;;;;;20.12;59.84;101233.92;;;;-61
2019/10/22 04:58:06;;;;;;;1.64;1.54;;;;;;;20.15;59.84;101227.14;;;;-62
2019/10/22 05:01:06;;;;;;;1.50;1.40;;;;;;;20.17;59.85;101229.11;;;;-61
2019/10/22 05:04:06;;;;;;;1.55;1.45;;;;;;;20.21;59.90;101234.91;;;;-61
2019/10/22 05:07:06;;;;;;;1.52;1.42;;;;;;;20.24;59.97;101228.83;;;;-62
2019/10/22 05:10:06;;;;;;;1.61;1.51;;;;;;;20.27;60.01;101243.02;;;;-61
2019/10/22 05:13:06;;;;;;;1.55;1.45;;;;;;;20.30;60.06;101244.46;;;;-61
2019/10/22 05:16:06;;;;;;;1.60;1.50;;;;;;;20.33;60.13;101256.76;;;;-61
2019/10/22 05:19:06;;;;;;;1.64;1.54;;;;;;;20.35;60.18;101272.75;;;;-61
2019/10/22 05:22:06;;;;;;;1.66;1.51;;;;;;;20.40;60.23;101270.30;;;;-62
2019/10/22 05:25:06;;;;;;;1.73;1.63;;;;;;;20.43;60.25;101273.81;;;;-61
2019/10/22 05:28:06;;;;;;;1.60;1.50;;;;;;;20.46;60.24;101284.08;;;;-61
2019/10/22 05:31:06;;;;;;;1.60;1.50;;;;;;;20.49;60.30;101285.58;;;;-62
2019/10/22 05:34:06;;;;;;;1.93;1.53;;;;;;;20.52;60.32;101271.65;;;;-61
2019/10/22 05:37:06;;;;;;;1.61;1.51;;;;;;;20.55;60.32;101276.98;;;;-52
2019/10/22 05:40:06;;;;;;;1.50;1.40;;;;;;;20.58;60.26;101289.39;;;;-52
2019/10/22 05:43:06;;;;;;;1.82;1.49;;;;;;;20.61;60.32;101282.89;;;;-52
2019/10/22 05:46:06;;;;;;;1.58;1.48;;;;;;;20.64;60.27;101272.98;;;;-52
2019/10/22 05:49:06;;;;;;;1.54;1.44;;;;;;;20.66;60.24;101260.09;;;;-52
2019/10/22 05:52:06;;;;;;;1.95;1.50;;;;;;;20.68;60.27;101252.55;;;;-52
2019/10/22 05:55:05;;;;;;;1.91;1.54;;;;;;;20.71;60.21;101251.86;;;;-52
2019/10/22 05:58:06;;;;;;;1.58;1.48;;;;;;;20.73;60.27;101255.83;;;;-52
2019/10/22 06:01:06;;;;;;;1.49;1.39;;;;;;;20.76;60.27;101245.98;;;;-48
2019/10/22 06:04:06;;;;;;;1.53;1.43;;;;;;;20.78;60.21;101266.39;;;;-49
2019/10/22 06:07:06;;;;;;;1.53;1.43;;;;;;;20.80;60.19;101273.52;;;;-49
2019/10/22 06:10:06;;;;;;;1.65;1.55;;;;;;;20.82;60.23;101267.03;;;;-48
2019/10/22 06:13:06;;;;;;;1.60;1.50;;;;;;;20.84;60.13;101266.78;;;;-48
2019/10/22 06:16:06;;;;;;;1.60;1.50;;;;;;;20.87;60.12;101259.06;;;;-49
2019/10/22 06:19:06;;;;;;;1.67;1.57;;;;;;;20.88;60.12;101262.09;;;;-49
2019/10/22 06:22:06;;;;;;;1.63;1.53;;;;;;;20.90;60.10;101263.13;;;;-48
2019/10/22 06:25:06;;;;;;;1.60;1.50;;;;;;;20.92;60.07;101270.17;;;;-49
2019/10/22 06:28:06;;;;;;;1.60;1.50;;;;;;;20.94;60.07;101271.89;;;;-49
2019/10/22 06:31:06;;;;;;;1.67;1.44;;;;;;;20.96;60.01;101271.22;;;;-49
2019/10/22 06:34:06;;;;;;;1.60;1.50;;;;;;;20.97;59.97;101281.80;;;;-49
2019/10/22 06:37:06;;;;;;;1.67;1.57;;;;;;;21.01;59.94;101281.63;;;;-49
2019/10/22 06:40:06;;;;;;;1.58;1.40;;;;;;;21.01;59.92;101266.10;;;;-52
2019/10/22 06:43:06;;;;;;;1.60;1.50;;;;;;;21.03;59.95;101276.29;;;;-48
2019/10/22 06:46:06;;;;;;;1.57;1.47;;;;;;;21.05;59.89;101269.61;;;;-49
2019/10/22 06:49:06;;;;;;;1.63;1.53;;;;;;;21.07;59.91;101272.06;;;;-49
2019/10/22 06:52:06;;;;;;;1.54;1.44;;;;;;;21.08;59.91;101275.98;;;;-49
2019/10/22 06:55:06;;;;;;;1.67;1.57;;;;;;;21.10;59.84;101278.45;;;;-48
2019/10/22 06:58:06;;;;;;;1.75;1.65;;;;;;;21.12;59.84;101277.98;;;;-49
2019/10/22 07:01:09;;;;;;;1.83;1.57;;;;;;;21.14;59.79;101297.68;;;;-49
2019/10/22 07:04:06;;;;;;;1.61;1.48;;;;;;;21.15;59.80;101301.59;;;;-49
2019/10/22 07:07:06;;;;;;;1.50;1.40;;;;;;;21.16;59.76;101307.59;;;;-48
2019/10/22 07:10:06;;;;;;;1.51;1.41;;;;;;;21.18;59.77;101305.84;;;;-49
2019/10/22 07:13:06;;;;;;;1.69;1.59;;;;;;;21.20;59.73;101314.84;;;;-49
2019/10/22 07:16:06;;;;;;;1.53;1.43;;;;;;;21.21;59.72;101325.55;;;;-49
2019/10/22 07:19:06;;;;;;;2.79;1.51;;;;;;;21.24;59.66;101331.08;;;;-51
2019/10/22 07:22:06;;;;;;;1.60;1.50;;;;;;;21.26;59.98;101347.66;;;;-51
2019/10/22 07:25:06;;;;;;;1.87;1.55;;;;;;;21.28;60.23;101354.53;;;;-50
2019/10/22 07:28:06;;;;;;;1.88;1.57;;;;;;;21.29;59.99;101365.45;;;;-51
2019/10/22 07:31:06;;;;;;;3.21;1.63;;;;;;;21.30;59.92;101367.62;;;;-51
2019/10/22 07:34:06;;;;;;;2.07;1.65;;;;;;;21.32;60.23;101367.22;;;;-52
2019/10/22 07:37:06;;;;;;;3.95;1.82;;;;;;;21.35;59.68;101364.73;;;;-57
2019/10/22 07:40:06;;;;;;;2.29;1.60;;;;;;;21.35;59.59;101363.39;;;;-57
2019/10/22 07:43:06;;;;;;;1.97;1.67;;;;;;;21.34;59.09;101361.91;;;;-57
2019/10/22 07:46:06;;;;;;;2.56;1.55;;;;;;;21.36;59.26;101376.52;;;;-57
2019/10/22 07:49:06;;;;;;;2.04;1.75;;;;;;;21.36;59.51;101376.13;;;;-52
2019/10/22 07:52:06;;;;;;;2.99;1.89;;;;;;;21.36;59.60;101369.80;;;;-51
2019/10/22 07:55:06;;;;;;;3.12;2.00;;;;;;;21.37;59.25;101372.47;;;;-50
2019/10/22 07:58:06;;;;;;;3.56;1.93;;;;;;;21.39;59.55;101389.37;;;;-49
2019/10/22 08:01:06;;;;;;;2.88;1.70;;;;;;;21.38;59.09;101399.45;;;;-50
2019/10/22 08:04:06;;;;;;;2.43;1.68;;;;;;;21.37;59.23;101402.59;;;;-52
2019/10/22 08:07:06;;;;;;;1.76;1.66;;;;;;;21.38;59.15;101400.82;;;;-52
2019/10/22 08:10:06;;;;;;;1.83;1.66;;;;;;;21.37;58.96;101393.25;;;;-52
2019/10/22 08:13:06;;;;;;;2.26;1.69;;;;;;;21.36;59.00;101399.69;;;;-60
2019/10/22 08:16:06;;;;;;;2.81;1.77;;;;;;;21.35;58.90;101398.12;;;;-53
2019/10/22 08:19:06;;;;;;;2.55;1.69;;;;;;;21.34;58.93;101394.38;;;;-53
2019/10/22 08:22:05;;;;;;;2.01;1.80;;;;;;;21.34;58.92;101387.21;;;;-52
2019/10/22 08:25:06;;;;;;;2.47;1.75;;;;;;;21.34;59.36;101384.62;;;;-55
2019/10/22 08:28:06;;;;;;;2.17;1.96;;;;;;;21.34;59.52;101400.59;;;;-53
2019/10/22 08:31:06;;;;;;;2.03;1.79;;;;;;;21.35;59.73;101422.55;;;;-54
2019/10/22 08:34:06;;;;;;;2.13;1.69;;;;;;;21.35;59.52;101422.05;;;;-57
2019/10/22 08:37:06;;;;;;;3.12;1.87;;;;;;;21.34;59.55;101410.51;;;;-50
2019/10/22 08:40:06;;;;;;;2.67;1.71;;;;;;;21.35;59.55;101409.44;;;;-54
2019/10/22 08:43:06;;;;;;;1.96;1.75;;;;;;;21.35;59.49;101410.45;;;;-57
2019/10/22 08:46:06;;;;;;;2.09;1.87;;;;;;;21.35;59.60;101407.92;;;;-52
2019/10/22 08:49:06;;;;;;;1.61;1.50;;;;;;;21.36;59.56;101405.75;;;;-57
2019/10/22 08:52:06;;;;;;;1.93;1.79;;;;;;;21.35;59.62;101408.27;;;;-60
2019/10/22 08:55:06;;;;;;;2.13;1.93;;;;;;;21.36;59.59;101408.95;;;;-56
2019/10/22 08:58:06;;;;;;;1.81;1.70;;;;;;;21.35;59.56;101404.06;;;;-53
2019/10/22 09:01:05;;;;;;;3.28;1.75;;;;;;;21.36;59.48;101402.00;;;;-54
2019/10/22 09:04:06;;;;;;;1.95;1.79;;;;;;;21.35;59.45;101401.27;;;;-54
2019/10/22 09:07:06;;;;;;;2.11;1.91;;;;;;;21.33;59.50;101400.27;;;;-54
2019/10/22 09:10:06;;;;;;;2.01;1.80;;;;;;;21.32;59.38;101401.05;;;;-53
2019/10/22 09:13:06;;;;;;;2.15;1.83;;;;;;;21.30;59.34;101403.98;;;;-53
2019/10/22 09:16:06;;;;;;;2.40;1.75;;;;;;;21.30;59.32;101422.11;;;;-54
2019/10/22 09:19:05;;;;;;;2.15;1.61;;;;;;;21.29;59.23;101420.21;;;;-53
2019/10/22 09:22:05;;;;;;;3.15;1.89;;;;;;;21.28;59.29;101430.65;;;;-53
2019/10/22 09:25:06;;;;;;;1.84;1.73;;;;;;;21.27;59.28;101422.87;;;;-53
2019/10/22 09:28:06;;;;;;;2.65;1.95;;;;;;;21.26;59.18;101425.88;;;;-54
2019/10/22 09:31:06;;;;;;;3.20;1.90;;;;;;;21.25;59.33;101427.00;;;;-52
2019/10/22 09:34:06;;;;;;;3.11;1.80;;;;;;;21.24;59.22;101423.83;;;;-53
2019/10/22 09:37:06;;;;;;;9.53;2.03;;;;;;;21.27;59.31;101428.92;;;;-51
2019/10/22 09:40:06;;;;;;;9.23;2.42;;;;;;;21.28;59.08;101430.91;;;;-54
2019/10/22 09:43:05;;;;;;;10.46;2.21;;;;;;;21.28;59.33;101433.27;;;;-53
2019/10/22 09:46:06;;;;;;;3.33;2.05;;;;;;;21.27;59.38;101431.94;;;;-50
2019/10/22 09:49:06;;;;;;;4.59;2.19;;;;;;;21.26;59.34;101434.28;;;;-54
2019/10/22 09:52:06;;;;;;;7.41;2.09;;;;;;;21.28;59.36;101428.06;;;;-52
2019/10/22 09:55:06;;;;;;;8.98;2.27;;;;;;;21.30;59.49;101429.08;;;;-52
2019/10/22 09:58:06;;;;;;;7.14;2.44;;;;;;;21.29;59.33;101430.81;;;;-47
2019/10/22 10:01:06;;;;;;;7.49;2.38;;;;;;;21.29;59.37;101426.27;;;;-49
2019/10/22 10:04:06;;;;;;;4.02;2.02;;;;;;;21.28;59.36;101422.19;;;;-49
2019/10/22 10:07:06;;;;;;;7.70;2.35;;;;;;;21.27;59.34;101413.06;;;;-52
2019/10/22 10:10:05;;;;;;;5.51;2.45;;;;;;;21.25;59.18;101412.05;;;;-52
2019/10/22 10:13:06;;;;;;;4.58;2.63;;;;;;;21.24;59.05;101410.89;;;;-51
2019/10/22 10:16:06;;;;;;;4.94;2.31;;;;;;;21.23;58.93;101411.51;;;;-50
2019/10/22 10:19:06;;;;;;;4.96;2.47;;;;;;;21.22;58.86;101403.38;;;;-51
2019/10/22 10:22:06;;;;;;;3.88;2.60;;;;;;;21.20;58.77;101389.17;;;;-51
2019/10/22 10:25:06;;;;;;;4.18;2.44;;;;;;;21.19;58.81;101385.20;;;;-63
2019/10/22 10:28:05;;;;;;;3.05;2.33;;;;;;;21.17;58.76;101379.55;;;;-62
2019/10/22 10:31:05;;;;;;;2.93;2.47;;;;;;;21.16;58.75;101389.96;;;;-50
2019/10/22 10:34:06;;;;;;;3.54;2.52;;;;;;;21.16;58.67;101386.77;;;;-51
2019/10/22 10:37:06;;;;;;;3.18;2.29;;;;;;;21.14;58.68;101385.27;;;;-51
2019/10/22 10:40:06;;;;;;;3.67;2.27;;;;;;;21.14;58.77;101385.94;;;;-51
2019/10/22 10:43:06;;;;;;;4.01;2.66;;;;;;;21.13;58.71;101388.56;;;;-51
2019/10/22 10:46:05;;;;;;;4.25;2.49;;;;;;;21.13;58.67;101395.22;;;;-51
2019/10/22 10:49:06;;;;;;;4.93;2.55;;;;;;;21.12;58.67;101390.25;;;;-51
2019/10/22 10:52:06;;;;;;;2.81;2.61;;;;;;;21.11;58.73;101379.45;;;;-51
2019/10/22 10:55:06;;;;;;;2.43;2.23;;;;;;;21.11;58.74;101379.89;;;;-51
2019/10/22 10:58:06;;;;;;;3.13;2.36;;;;;;;21.09;58.82;101381.64;;;;-51
2019/10/22 11:01:06;;;;;;;3.53;2.23;;;;;;;21.09;58.83;101386.84;;;;-51
2019/10/22 11:04:06;;;;;;;2.74;2.31;;;;;;;21.07;58.85;101380.06;;;;-53
2019/10/22 11:07:06;;;;;;;2.57;2.30;;;;;;;21.07;58.77;101368.87;;;;-51
2019/10/22 11:10:05;;;;;;;2.59;2.22;;;;;;;21.06;58.72;101364.18;;;;-51
2019/10/22 11:13:06;;;;;;;4.85;2.25;;;;;;;21.06;58.79;101366.07;;;;-58
2019/10/22 11:16:06;;;;;;;2.40;2.20;;;;;;;21.05;58.82;101364.69;;;;-53
2019/10/22 11:19:06;;;;;;;2.76;2.31;;;;;;;21.04;58.88;101362.67;;;;-52
2019/10/22 11:22:06;;;;;;;2.95;2.35;;;;;;;21.03;58.80;101365.47;;;;-53
2019/10/22 11:25:06;;;;;;;4.52;2.31;;;;;;;21.03;58.84;101366.70;;;;-53
2019/10/22 11:28:05;;;;;;;2.45;2.23;;;;;;;21.03;58.89;101366.14;;;;-54
2019/10/22 11:31:06;;;;;;;3.64;2.21;;;;;;;21.03;58.77;101358.75;;;;-62
2019/10/22 11:34:06;;;;;;;2.63;2.20;;;;;;;21.03;58.81;101353.88;;;;-63
2019/10/22 11:37:06;;;;;;;2.60;2.40;;;;;;;21.01;58.88;101357.80;;;;-63
2019/10/22 11:40:06;;;;;;;2.20;2.00;;;;;;;21.01;58.83;101350.74;;;;-63
2019/10/22 11:43:06;;;;;;;2.46;2.19;;;;;;;21.01;58.81;101337.48;;;;-63
2019/10/22 11:46:06;;;;;;;2.29;2.09;;;;;;;21.00;58.77;101333.00;;;;-62
2019/10/22 11:49:06;;;;;;;3.18;2.25;;;;;;;21.00;58.82;101325.00;;;;-60
2019/10/22 11:52:06;;;;;;;2.40;2.20;;;;;;;21.01;58.93;101319.79;;;;-62
2019/10/22 11:55:05;;;;;;;2.27;2.03;;;;;;;21.01;58.98;101312.97;;;;-61
2019/10/22 11:58:06;;;;;;;3.09;2.21;;;;;;;21.04;59.06;101310.73;;;;-61
2019/10/22 12:01:05;;;;;;;3.67;2.41;;;;;;;21.04;59.07;101320.95;;;;-65
2019/10/22 12:04:06;;;;;;;2.80;2.31;;;;;;;21.04;59.17;101317.09;;;;-62
2019/10/22 12:07:06;;;;;;;2.65;2.10;;;;;;;21.05;59.18;101312.00;;;;-63
2019/10/22 12:10:06;;;;;;;2.41;2.21;;;;;;;21.05;59.17;101305.45;;;;-56
2019/10/22 12:13:05;;;;;;;3.83;2.39;;;;;;;21.05;59.17;101294.99;;;;-59
2019/10/22 12:16:06;;;;;;;2.86;2.19;;;;;;;21.04;59.20;101297.46;;;;-59
2019/10/22 12:19:06;;;;;;;2.76;1.97;;;;;;;21.03;59.22;101304.06;;;;-59
2019/10/22 12:22:06;;;;;;;8.03;2.57;;;;;;;21.03;59.25;101288.61;;;;-50
2019/10/22 12:25:06;;;;;;;4.64;2.43;;;;;;;21.02;59.29;101281.55;;;;-51
2019/10/22 12:28:06;;;;;;;2.89;2.05;;;;;;;21.05;59.20;101270.14;;;;-53
2019/10/22 12:31:06;;;;;;;3.90;2.29;;;;;;;21.05;59.21;101264.76;;;;-50
2019/10/22 12:34:06;;;;;;;2.31;2.13;;;;;;;21.06;59.21;101255.91;;;;-54
2019/10/22 12:37:06;;;;;;;3.84;2.26;;;;;;;21.05;59.29;101257.58;;;;-52
2019/10/22 12:40:05;;;;;;;3.43;2.15;;;;;;;21.06;59.28;101263.34;;;;-55
2019/10/22 12:43:06;;;;;;;4.08;2.25;;;;;;;21.06;59.31;101258.81;;;;-53
2019/10/22 12:46:06;;;;;;;2.45;2.23;;;;;;;21.05;59.24;101254.69;;;;-49
2019/10/22 12:49:05;;;;;;;2.55;2.12;;;;;;;21.06;59.33;101246.50;;;;-48
2019/10/22 12:52:06;;;;;;;2.98;2.32;;;;;;;21.05;59.32;101234.63;;;;-54
2019/10/22 12:55:06;;;;;;;3.06;2.17;;;;;;;21.06;59.38;101234.63;;;;-52
2019/10/22 12:58:05;;;;;;;3.19;2.30;;;;;;;21.05;59.41;101229.70;;;;-52
2019/10/22 13:01:05;;;;;;;2.67;2.19;;;;;;;21.04;59.34;101228.24;;;;-50
2019/10/22 13:04:06;;;;;;;3.70;2.29;;;;;;;21.03;59.30;101233.91;;;;-48
2019/10/22 13:07:06;;;;;;;3.15;2.27;;;;;;;21.02;59.35;101236.20;;;;-48
2019/10/22 13:10:06;;;;;;;3.66;2.16;;;;;;;21.01;59.27;101235.88;;;;-48
2019/10/22 13:13:06;;;;;;;2.86;2.29;;;;;;;21.00;59.25;101236.27;;;;-48
2019/10/22 13:16:06;;;;;;;3.33;2.17;;;;;;;20.99;59.23;101239.75;;;;-52
2019/10/22 13:19:06;;;;;;;2.71;2.20;;;;;;;20.99;59.27;101238.91;;;;-48
2019/10/22 13:22:06;;;;;;;2.22;1.95;;;;;;;20.98;59.17;101234.45;;;;-48
2019/10/22 13:25:06;;;;;;;2.72;2.14;;;;;;;20.97;59.16;101233.59;;;;-48
2019/10/22 13:28:06;;;;;;;2.35;2.15;;;;;;;20.97;59.16;101230.30;;;;-48
2019/10/22 13:31:06;;;;;;;3.93;2.43;;;;;;;20.97;59.17;101235.61;;;;-49
2019/10/22 13:34:06;;;;;;;2.39;2.02;;;;;;;20.97;59.19;101232.48;;;;-48
2019/10/22 13:37:06;;;;;;;3.49;2.05;;;;;;;20.96;59.15;101234.28;;;;-49
2019/10/22 13:40:06;;;;;;;2.19;1.89;;;;;;;20.96;59.17;101238.81;;;;-49
2019/10/22 13:43:05;;;;;;;4.91;2.49;;;;;;;20.92;59.17;101248.74;;;;-47
2019/10/22 13:46:05;;;;;;;7.03;3.16;;;;;;;20.90;59.16;101255.30;;;;-57
2019/10/22 13:49:06;;;;;;;5.06;2.76;;;;;;;20.91;59.25;101246.55;;;;-59
2019/10/22 13:52:06;;;;;;;7.31;2.83;;;;;;;20.93;59.11;101239.61;;;;-56
2019/10/22 13:55:06;;;;;;;2.91;2.47;;;;;;;20.93;59.13;101237.32;;;;-60
2019/10/22 13:58:06;;;;;;;4.93;2.57;;;;;;;20.94;59.13;101249.63;;;;-59
2019/10/22 14:01:05;;;;;;;2.79;2.41;;;;;;;20.93;59.09;101253.61;;;;-61
2019/10/22 14:04:05;;;;;;;6.25;2.66;;;;;;;20.93;59.13;101252.20;;;;-59
2019/10/22 14:07:06;;;;;;;4.49;2.39;;;;;;;20.92;59.13;101244.92;;;;-60
2019/10/22 14:10:06;;;;;;;4.57;2.56;;;;;;;20.92;59.18;101243.53;;;;-61
2019/10/22 14:13:06;;;;;;;2.84;2.47;;;;;;;20.92;59.16;101244.48;;;;-60
2019/10/22 14:16:06;;;;;;;3.03;2.59;;;;;;;20.92;59.15;101251.43;;;;-60
2019/10/22 14:19:06;;;;;;;3.75;2.41;;;;;;;20.91;59.42;101244.11;;;;-52
2019/10/22 14:22:05;;;;;;;3.41;2.59;;;;;;;20.93;59.42;101246.38;;;;-59
2019/10/22 14:25:06;;;;;;;4.09;2.25;;;;;;;20.94;59.51;101239.05;;;;-59
2019/10/22 14:28:05;;;;;;;4.43;2.30;;;;;;;20.95;59.57;101238.88;;;;-64
2019/10/22 14:31:06;;;;;;;3.65;2.49;;;;;;;20.95;59.72;101232.05;;;;-52
2019/10/22 14:34:06;;;;;;;3.97;2.25;;;;;;;20.96;59.79;101224.44;;;;-59
2019/10/22 14:37:06;;;;;;;3.51;2.35;;;;;;;20.97;59.72;101219.72;;;;-59
2019/10/22 14:40:05;;;;;;;5.06;2.28;;;;;;;20.96;59.77;101213.69;;;;-59
2019/10/22 14:43:05;;;;;;;3.47;2.52;;;;;;;20.97;59.84;101210.42;;;;-51
2019/10/22 14:46:06;;;;;;;6.00;2.26;;;;;;;20.97;59.90;101205.05;;;;-49
2019/10/22 14:49:06;;;;;;;4.53;2.39;;;;;;;20.98;59.97;101207.41;;;;-62
2019/10/22 14:52:06;;;;;;;3.81;2.38;;;;;;;20.99;59.91;101206.22;;;;-53
2019/10/22 14:55:06;;;;;;;3.75;2.31;;;;;;;20.99;59.94;101199.67;;;;-57
2019/10/22 14:58:05;;;;;;;4.25;2.36;;;;;;;20.99;59.96;101193.96;;;;-50
2019/10/22 15:01:05;;;;;;;2.81;2.43;;;;;;;21.00;59.96;101188.30;;;;-48
2019/10/22 15:04:05;;;;;;;3.41;2.27;;;;;;;21.01;59.86;101183.31;;;;-54
2019/10/22 15:07:06;;;;;;;4.23;2.19;;;;;;;20.99;59.93;101181.98;;;;-51
2019/10/22 15:10:06;;;;;;;4.27;2.20;;;;;;;20.98;59.79;101176.45;;;;-55
2019/10/22 15:13:06;;;;;;;3.13;2.10;;;;;;;20.99;59.75;101179.69;;;;-54
2019/10/22 15:16:06;;;;;;;2.52;2.11;;;;;;;20.98;59.76;101177.95;;;;-47
2019/10/22 15:19:05;;;;;;;4.08;2.29;;;;;;;20.97;59.76;101176.73;;;;-47
2019/10/22 15:22:05;;;;;;;2.69;2.21;;;;;;;20.97;59.74;101179.59;;;;-51
2019/10/22 15:25:05;;;;;;;2.75;2.27;;;;;;;20.96;59.57;101172.66;;;;-54
2019/10/22 15:28:05;;;;;;;2.63;2.33;;;;;;;20.96;59.55;101178.36;;;;-51
2019/10/22 15:31:05;;;;;;;2.39;2.19;;;;;;;20.95;59.52;101178.81;;;;-51
2019/10/22 15:34:06;;;;;;;2.71;2.17;;;;;;;20.93;59.52;101178.16;;;;-54
2019/10/22 15:37:05;;;;;;;2.38;2.10;;;;;;;20.94;59.51;101180.11;;;;-47
2019/10/22 15:40:05;;;;;;;2.79;2.21;;;;;;;20.93;59.48;101177.64;;;;-54
2019/10/22 15:43:05;;;;;;;2.43;2.12;;;;;;;20.93;59.44;101172.44;;;;-47
2019/10/22 15:46:05;;;;;;;2.40;2.20;;;;;;;20.93;59.43;101170.38;;;;-51
2019/10/22 15:49:06;;;;;;;2.71;2.21;;;;;;;20.92;59.46;101176.70;;;;-46
2019/10/22 15:52:06;;;;;;;5.33;2.42;;;;;;;20.91;59.40;101180.23;;;;-47
2019/10/22 15:55:05;;;;;;;2.49;2.29;;;;;;;20.90;59.41;101184.61;;;;-51
2019/10/22 15:58:18;;;;;;;7.76;2.38;;;;;;;20.90;59.71;101183.33;;;;-47
2019/10/22 16:01:05;;;;;;;3.34;2.28;;;;;;;20.90;59.69;101184.00;;;;-64
2019/10/22 16:04:06;;;;;;;2.83;2.10;;;;;;;20.93;59.55;101184.08;;;;-48
2019/10/22 16:07:06;;;;;;;2.60;2.12;;;;;;;20.93;59.58;101186.11;;;;-52
2019/10/22 16:10:06;;;;;;;4.15;2.26;;;;;;;20.93;59.55;101185.70;;;;-47
2019/10/22 16:13:06;;;;;;;3.57;2.21;;;;;;;20.95;59.63;101196.68;;;;-51
2019/10/22 16:16:05;;;;;;;3.31;2.11;;;;;;;20.94;59.58;101198.58;;;;-50
2019/10/22 16:19:05;;;;;;;2.41;2.09;;;;;;;20.94;59.68;101203.22;;;;-51
2019/10/22 16:22:05;;;;;;;3.54;2.21;;;;;;;20.95;59.73;101208.87;;;;-54
2019/10/22 16:25:05;;;;;;;3.30;2.15;;;;;;;20.95;59.68;101211.05;;;;-54
2019/10/22 16:28:06;;;;;;;2.15;1.89;;;;;;;20.95;59.72;101208.20;;;;-52
2019/10/22 16:31:06;;;;;;;2.75;2.10;;;;;;;20.95;59.74;101206.63;;;;-59
2019/10/22 16:34:05;;;;;;;4.00;2.13;;;;;;;20.96;59.78;101206.23;;;;-54
2019/10/22 16:37:05;;;;;;;3.13;2.36;;;;;;;20.96;59.89;101208.66;;;;-62
2019/10/22 16:40:05;;;;;;;3.77;2.23;;;;;;;20.97;59.81;101211.83;;;;-52
2019/10/22 16:43:05;;;;;;;3.64;2.21;;;;;;;20.98;59.80;101209.26;;;;-53